createdAt,value
2023-01-05T00:00:21.118Z,2.67
2023-01-05T00:02:28.630Z,2.38
2023-01-05T00:04:30.735Z,2.42
2023-01-05T00:06:34.284Z,2.55
2023-01-05T00:08:38.945Z,2.30
2023-01-05T00:10:59.622Z,2.58
2023-01-05T00:13:22.023Z,2.63
2023-01-05T00:15:46.339Z,2.63
2023-01-05T00:18:07.785Z,2.60
2023-01-05T00:20:41.597Z,2.50
2023-01-05T00:22:49.411Z,2.38
2023-01-05T00:24:53.337Z,2.30
2023-01-05T00:26:56.147Z,2.67
2023-01-05T00:29:03.846Z,2.67
2023-01-05T00:31:09.001Z,2.42
2023-01-05T00:33:16.528Z,2.25
2023-01-05T00:35:18.921Z,2.47
2023-01-05T00:37:24.612Z,2.33
2023-01-05T00:39:26.480Z,2.35
2023-01-05T00:41:30.416Z,2.60
2023-01-05T00:43:32.305Z,2.45
2023-01-05T00:45:34.307Z,2.20
2023-01-05T00:47:36.403Z,2.70
2023-01-05T00:49:39.380Z,2.28
2023-01-05T00:51:47.190Z,2.33
2023-01-05T00:53:49.281Z,2.35
2023-01-05T00:56:00.417Z,2.35
2023-01-05T00:58:03.448Z,2.30
2023-01-05T01:00:11.256Z,2.33
2023-01-05T01:02:14.667Z,2.22
2023-01-05T01:04:17.886Z,2.63
2023-01-05T01:06:20.340Z,1.88
2023-01-05T01:08:24.238Z,3.35
2023-01-05T01:10:26.187Z,2.15
2023-01-05T01:12:28.078Z,2.20
2023-01-05T01:14:31.052Z,2.30
2023-01-05T01:16:34.935Z,2.28
2023-01-05T01:18:37.111Z,2.38
2023-01-05T01:20:41.064Z,2.10
2023-01-05T01:22:43.085Z,2.30
2023-01-05T01:24:44.995Z,2.03
2023-01-05T01:26:48.023Z,1.90
2023-01-05T01:28:49.997Z,2.40
2023-01-05T01:30:52.027Z,2.00
2023-01-05T01:32:53.942Z,2.00
2023-01-05T01:34:56.054Z,2.08
2023-01-05T01:36:58.020Z,2.08
2023-01-05T01:39:00.402Z,1.95
2023-01-05T01:41:03.283Z,2.13
2023-01-05T01:43:17.009Z,1.80
2023-01-05T01:45:23.186Z,2.05
2023-01-05T01:47:34.021Z,2.35
2023-01-05T01:49:39.099Z,1.90
2023-01-05T01:51:47.272Z,1.75
2023-01-05T01:53:53.291Z,1.90
2023-01-05T01:55:58.223Z,1.60
2023-01-05T01:58:01.910Z,1.60
2023-01-05T02:00:08.915Z,1.75
2023-01-05T02:02:12.730Z,1.80
2023-01-05T02:04:16.921Z,1.60
2023-01-05T02:06:18.944Z,1.40
2023-01-05T02:08:31.500Z,1.10
2023-01-05T02:10:49.303Z,1.35
2023-01-05T02:13:15.037Z,1.80
2023-01-05T02:15:23.836Z,1.40
2023-01-05T02:17:44.597Z,1.63
2023-01-05T02:20:14.455Z,1.50
2023-01-05T02:22:27.032Z,1.70
2023-01-05T02:24:28.965Z,1.40
2023-01-05T02:26:54.316Z,1.23
2023-01-05T02:29:21.310Z,1.23
2023-01-05T02:31:29.273Z,1.38
2023-01-05T02:33:43.790Z,1.45
2023-01-05T02:36:04.333Z,1.17
2023-01-05T02:38:22.103Z,1.40
2023-01-05T02:40:42.555Z,1.45
2023-01-05T02:42:52.901Z,1.30
2023-01-05T02:44:55.000Z,1.40
2023-01-05T02:47:26.129Z,1.25
2023-01-05T02:49:29.916Z,1.40
2023-01-05T02:51:47.383Z,1.33
2023-01-05T02:54:00.404Z,1.30
2023-01-05T02:56:42.455Z,1.00
2023-01-05T03:00:55.727Z,1.25
2023-01-05T03:03:06.110Z,1.23
2023-01-05T03:05:13.049Z,1.40
2023-01-05T03:07:19.268Z,1.30
2023-01-05T03:09:26.133Z,1.20
2023-01-05T03:12:18.330Z,1.10
2023-01-05T03:14:32.545Z,1.08
2023-01-05T03:16:38.031Z,1.17
2023-01-05T03:19:00.734Z,1.50
2023-01-05T03:21:03.834Z,1.33
2023-01-05T03:23:32.561Z,1.25
2023-01-05T03:25:57.973Z,1.05
2023-01-05T03:28:21.938Z,1.30
2023-01-05T03:30:52.781Z,1.20
2023-01-05T03:33:22.282Z,1.08
2023-01-05T03:35:34.808Z,1.45
2023-01-05T03:37:42.541Z,1.33
2023-01-05T03:39:47.586Z,1.20
2023-01-05T03:41:50.968Z,1.20
2023-01-05T03:43:54.122Z,1.27
2023-01-05T03:45:57.716Z,1.02
2023-01-05T03:48:00.708Z,1.10
2023-01-05T03:50:06.158Z,1.00
2023-01-05T03:52:10.090Z,1.20
2023-01-05T03:54:15.052Z,0.98
2023-01-05T03:56:17.919Z,1.38
2023-01-05T03:58:19.837Z,1.10
2023-01-05T04:00:26.914Z,1.27
2023-01-05T04:02:29.925Z,1.25
2023-01-05T04:04:33.013Z,0.98
2023-01-05T04:06:34.914Z,1.17
2023-01-05T04:08:38.869Z,1.30
2023-01-05T04:10:41.893Z,1.20
2023-01-05T04:12:44.495Z,1.17
2023-01-05T04:14:46.432Z,1.17
2023-01-05T04:16:48.432Z,1.30
2023-01-05T04:18:50.561Z,1.17
2023-01-05T04:20:53.526Z,1.10
2023-01-05T04:22:56.475Z,1.27
2023-01-05T04:25:00.423Z,1.20
2023-01-05T04:27:03.431Z,1.00
2023-01-05T04:29:06.614Z,0.90
2023-01-05T04:31:10.723Z,1.20
2023-01-05T04:33:15.889Z,1.10
2023-01-05T04:35:18.847Z,1.17
2023-01-05T04:37:20.750Z,1.33
2023-01-05T04:39:24.933Z,1.23
2023-01-05T04:41:27.891Z,1.23
2023-01-05T04:43:35.771Z,1.25
2023-01-05T04:45:38.806Z,1.30
2023-01-05T04:47:40.756Z,1.27
2023-01-05T04:49:43.034Z,1.10
2023-01-05T04:51:45.009Z,1.00
2023-01-05T04:53:51.192Z,1.00
2023-01-05T04:56:00.780Z,1.23
2023-01-05T04:58:05.635Z,1.20
2023-01-05T05:00:12.502Z,1.35
2023-01-05T05:02:14.849Z,1.25
2023-01-05T05:04:17.980Z,1.05
2023-01-05T05:06:20.122Z,1.35
2023-01-05T05:08:22.038Z,1.30
2023-01-05T05:10:27.279Z,1.10
2023-01-05T05:12:29.211Z,1.10
2023-01-05T05:14:31.275Z,1.20
2023-01-05T05:16:35.157Z,1.20
2023-01-05T05:18:39.097Z,0.90
2023-01-05T05:20:44.189Z,1.30
2023-01-05T05:22:52.893Z,0.93
2023-01-05T05:24:54.781Z,1.38
2023-01-05T05:26:57.568Z,1.65
2023-01-05T05:29:00.024Z,0.93
2023-01-05T05:31:08.025Z,1.17
2023-01-05T05:33:10.221Z,1.05
2023-01-05T05:35:14.431Z,1.08
2023-01-05T05:37:19.482Z,1.02
2023-01-05T05:39:21.514Z,1.10
2023-01-05T05:41:23.444Z,1.10
2023-01-05T05:43:25.283Z,1.10
2023-01-05T05:45:29.327Z,1.40
2023-01-05T05:47:31.340Z,1.00
2023-01-05T05:49:33.414Z,0.90
2023-01-05T05:51:35.929Z,1.23
2023-01-05T05:53:37.892Z,1.00
2023-01-05T05:55:39.925Z,1.08
2023-01-05T05:57:41.950Z,1.05
2023-01-05T05:59:46.953Z,1.20
2023-01-05T06:01:52.787Z,1.30
2023-01-05T06:03:56.055Z,1.48
2023-01-05T06:06:00.104Z,1.50
2023-01-05T06:08:03.191Z,1.40
2023-01-05T06:10:06.797Z,1.23
2023-01-05T06:12:14.923Z,1.20
2023-01-05T06:14:22.656Z,1.52
2023-01-05T06:16:25.592Z,1.33
2023-01-05T06:18:28.613Z,1.00
2023-01-05T06:20:31.740Z,1.38
2023-01-05T06:22:33.699Z,1.40
2023-01-05T06:24:35.674Z,1.25
2023-01-05T06:26:39.671Z,1.35
2023-01-05T06:28:42.900Z,1.65
2023-01-05T06:30:47.922Z,1.13
2023-01-05T06:32:55.887Z,1.70
2023-01-05T06:35:03.944Z,1.27
2023-01-05T06:37:30.628Z,1.70
2023-01-05T06:39:34.563Z,1.77
2023-01-05T06:41:36.590Z,1.67
2023-01-05T06:43:41.756Z,1.60
2023-01-05T06:45:46.215Z,2.03
2023-01-05T06:47:52.569Z,1.10
2023-01-05T06:49:55.517Z,1.52
2023-01-05T06:51:57.663Z,1.58
2023-01-05T06:54:02.737Z,1.90
2023-01-05T06:56:07.088Z,1.33
2023-01-05T06:58:09.087Z,1.40
2023-01-05T07:00:20.613Z,1.58
2023-01-05T07:04:28.671Z,1.30
2023-01-05T07:06:31.146Z,1.55
2023-01-05T07:08:34.204Z,1.40
2023-01-05T07:10:36.443Z,1.50
2023-01-05T07:12:38.444Z,1.65
2023-01-05T07:14:42.469Z,1.40
2023-01-05T07:16:44.441Z,1.48
2023-01-05T07:18:46.429Z,1.75
2023-01-05T07:20:50.505Z,1.45
2023-01-05T07:22:53.451Z,1.40
2023-01-05T07:25:03.256Z,1.67
2023-01-05T07:27:12.723Z,1.08
2023-01-05T07:29:14.802Z,1.35
2023-01-05T07:31:18.975Z,1.38
2023-01-05T07:33:21.057Z,1.90
2023-01-05T07:35:25.391Z,1.77
2023-01-05T07:37:27.792Z,1.40
2023-01-05T07:39:29.825Z,1.80
2023-01-05T07:41:33.285Z,1.75
2023-01-05T07:43:36.346Z,2.25
2023-01-05T07:45:52.574Z,1.70
2023-01-05T07:47:54.665Z,1.85
2023-01-05T07:49:59.343Z,1.80
2023-01-05T07:52:01.295Z,1.35
2023-01-05T07:54:03.334Z,1.73
2023-01-05T07:56:09.026Z,1.88
2023-01-05T07:58:18.521Z,1.70
2023-01-05T08:00:20.737Z,1.77
2023-01-05T08:02:23.844Z,1.83
2023-01-05T08:04:29.416Z,1.77
2023-01-05T08:06:35.071Z,1.98
2023-01-05T08:08:41.712Z,1.90
2023-01-05T08:10:44.932Z,1.70
2023-01-05T08:13:31.567Z,1.70
2023-01-05T08:15:36.866Z,1.55
2023-01-05T08:17:57.382Z,1.83
2023-01-05T08:20:05.690Z,1.95
2023-01-05T08:22:08.827Z,1.63
2023-01-05T08:24:11.354Z,1.85
2023-01-05T08:26:20.626Z,1.70
2023-01-05T08:28:27.150Z,1.55
2023-01-05T08:30:34.340Z,1.73
2023-01-05T08:32:36.405Z,2.10
2023-01-05T08:34:40.372Z,1.60
2023-01-05T08:36:43.527Z,1.90
2023-01-05T08:38:56.335Z,1.70
2023-01-05T08:41:02.542Z,2.17
2023-01-05T08:43:06.871Z,2.42
2023-01-05T08:45:12.684Z,2.20
2023-01-05T08:47:14.622Z,2.13
2023-01-05T08:49:20.369Z,2.10
2023-01-05T08:51:24.061Z,2.15
2023-01-05T08:53:31.212Z,2.00
2023-01-05T08:55:34.216Z,2.40
2023-01-05T08:57:37.186Z,2.40
2023-01-05T08:59:39.222Z,2.08
2023-01-05T09:01:42.580Z,2.40
2023-01-05T09:03:46.671Z,2.50
2023-01-05T09:05:48.907Z,2.33
2023-01-05T09:08:01.003Z,2.92
2023-01-05T09:10:08.665Z,2.30
2023-01-05T09:12:14.788Z,2.50
2023-01-05T09:14:17.099Z,2.47
2023-01-05T09:18:45.511Z,2.25
2023-01-05T09:20:56.385Z,2.30
2023-01-05T09:22:59.509Z,2.20
2023-01-05T09:25:03.470Z,2.20
2023-01-05T09:27:07.987Z,2.47
2023-01-05T09:29:13.520Z,2.63
2023-01-05T09:31:24.359Z,2.67
2023-01-05T09:33:27.316Z,2.53
2023-01-05T09:35:29.421Z,2.80
2023-01-05T09:37:31.307Z,2.28
2023-01-05T09:39:34.315Z,2.40
2023-01-05T09:41:51.698Z,2.25
2023-01-05T09:44:07.418Z,2.40
2023-01-05T09:46:19.850Z,2.92
2023-01-05T09:48:25.439Z,2.97
2023-01-05T09:50:34.505Z,2.75
2023-01-05T09:52:38.656Z,2.75
2023-01-05T09:54:45.830Z,3.00
2023-01-05T09:59:19.757Z,2.47
2023-01-05T10:01:23.139Z,3.42
2023-01-05T10:04:02.324Z,3.30
2023-01-05T10:05:50.484Z,3.30
2023-01-05T10:08:02.003Z,2.60
2023-01-05T10:10:18.044Z,2.20
2023-01-05T10:12:47.868Z,2.40
2023-01-05T10:15:07.223Z,2.40
2023-01-05T10:19:42.419Z,3.15
2023-01-05T10:22:13.186Z,3.38
2023-01-05T10:24:27.243Z,3.35
2023-01-05T10:27:23.064Z,4.00
2023-01-05T10:29:17.597Z,3.05
2023-01-05T10:31:29.251Z,4.40
2023-01-05T10:33:57.925Z,3.95
2023-01-05T10:36:12.050Z,3.50
2023-01-05T10:38:54.669Z,3.30
2023-01-05T10:41:21.579Z,3.65
2023-01-05T10:44:06.285Z,3.30
2023-01-05T10:46:32.138Z,3.50
2023-01-05T10:48:36.592Z,3.35
2023-01-05T10:50:41.416Z,3.90
2023-01-05T10:53:00.458Z,2.78
2023-01-05T10:55:03.335Z,3.50
2023-01-05T10:57:37.256Z,4.75
2023-01-05T11:00:00.718Z,3.83
2023-01-05T11:02:04.197Z,3.00
2023-01-05T11:06:38.198Z,3.13
2023-01-05T11:08:40.317Z,3.42
2023-01-05T11:11:07.695Z,3.22
2023-01-05T11:13:27.382Z,3.17
2023-01-05T11:15:32.656Z,3.08
2023-01-05T11:17:37.735Z,3.47
2023-01-05T11:19:47.785Z,3.88
2023-01-05T11:22:01.629Z,3.15
2023-01-05T11:24:05.183Z,3.22
2023-01-05T11:26:23.722Z,3.17
2023-01-05T11:28:27.695Z,2.63
2023-01-05T11:30:32.041Z,3.72
2023-01-05T11:32:36.960Z,2.40
2023-01-05T11:34:38.955Z,2.92
2023-01-05T11:36:41.135Z,3.72
2023-01-05T11:38:51.431Z,3.65
2023-01-05T11:40:56.391Z,2.72
2023-01-05T11:43:00.061Z,2.53
2023-01-05T11:45:19.813Z,3.72
2023-01-05T11:47:25.625Z,3.33
2023-01-05T11:49:27.649Z,3.13
2023-01-05T11:51:36.314Z,3.15
2023-01-05T11:53:41.421Z,3.55
2023-01-05T11:55:44.451Z,2.78
2023-01-05T11:58:00.127Z,3.08
2023-01-05T12:00:03.928Z,2.78
2023-01-05T12:02:30.764Z,3.70
2023-01-05T12:05:06.692Z,3.88
2023-01-05T12:07:28.798Z,3.63
2023-01-05T12:09:36.222Z,3.72
2023-01-05T12:11:53.364Z,3.90
2023-01-05T12:14:38.283Z,3.13
2023-01-05T12:16:48.478Z,4.00
2023-01-05T12:19:18.798Z,3.50
2023-01-05T12:21:28.129Z,5.07
2023-01-05T12:23:47.234Z,3.55
2023-01-05T12:25:59.502Z,3.25
2023-01-05T12:28:05.485Z,3.00
2023-01-05T12:35:29.691Z,3.53
2023-01-05T12:37:54.707Z,3.13
2023-01-05T12:40:11.780Z,4.30
2023-01-05T12:42:41.523Z,4.22
2023-01-05T12:44:49.563Z,1.90
2023-01-05T12:47:22.416Z,1.55
2023-01-05T12:49:59.571Z,1.15
2023-01-05T12:52:17.405Z,1.30
2023-01-05T12:54:31.222Z,3.03
2023-01-05T12:56:54.016Z,2.22
2023-01-05T12:59:11.277Z,2.50
2023-01-05T13:01:22.770Z,2.80
2023-01-05T13:06:31.577Z,2.30
2023-01-05T13:09:04.016Z,2.30
2023-01-05T13:11:29.948Z,2.35
2023-01-05T13:13:52.740Z,2.47
2023-01-05T13:16:02.928Z,2.75
2023-01-05T13:18:07.357Z,2.55
2023-01-05T13:20:21.392Z,2.33
2023-01-05T13:22:28.590Z,3.42
2023-01-05T13:24:40.251Z,2.75
2023-01-05T13:26:43.183Z,3.35
2023-01-05T13:28:56.174Z,3.22
2023-01-05T13:31:13.873Z,3.53
2023-01-05T13:33:38.239Z,6.95
2023-01-05T13:36:00.134Z,5.35
2023-01-05T13:38:23.861Z,6.80
2023-01-05T13:40:47.637Z,10.25
2023-01-05T13:45:10.472Z,2.63
2023-01-05T13:47:23.801Z,3.50
2023-01-05T13:49:41.105Z,2.17
2023-01-05T13:52:00.299Z,2.40
2023-01-05T13:54:13.551Z,2.72
2023-01-05T13:56:30.446Z,3.47
2023-01-05T13:58:51.769Z,2.25
2023-01-05T14:00:54.501Z,2.45
2023-01-05T14:03:07.655Z,2.38
2023-01-05T14:05:30.519Z,2.15
2023-01-05T14:07:33.779Z,2.35
2023-01-05T14:09:42.914Z,2.80
2023-01-05T14:12:15.134Z,2.65
2023-01-05T14:16:35.517Z,2.08
2023-01-05T14:19:13.057Z,2.10
2023-01-05T14:21:56.760Z,2.90
2023-01-05T14:23:59.779Z,3.03
2023-01-05T14:26:07.011Z,2.70
2023-01-05T14:28:30.847Z,2.60
2023-01-05T14:30:32.844Z,3.20
2023-01-05T14:32:37.258Z,2.65
2023-01-05T14:34:48.514Z,2.70
2023-01-05T14:37:02.232Z,3.08
2023-01-05T14:39:21.291Z,2.80
2023-01-05T14:41:26.846Z,3.17
2023-01-05T14:43:35.246Z,3.10
2023-01-05T14:45:39.606Z,2.72
2023-01-05T14:47:47.316Z,2.80
2023-01-05T14:50:03.896Z,3.42
2023-01-05T14:52:16.634Z,3.03
2023-01-05T14:55:05.923Z,2.90
2023-01-05T14:57:48.864Z,2.60
2023-01-05T14:59:57.873Z,2.92
2023-01-05T15:02:19.441Z,2.80
2023-01-05T15:04:33.755Z,2.60
2023-01-05T15:06:55.236Z,3.13
2023-01-05T15:09:23.881Z,2.50
2023-01-05T15:11:44.324Z,2.70
2023-01-05T15:14:20.760Z,3.40
2023-01-05T15:16:56.226Z,2.65
2023-01-05T15:19:28.080Z,2.70
2023-01-05T15:24:26.651Z,2.83
2023-01-05T15:26:46.931Z,2.42
2023-01-05T15:29:11.797Z,2.40
2023-01-05T15:31:32.916Z,2.72
2023-01-05T15:33:46.333Z,2.63
2023-01-05T15:36:02.769Z,2.60
2023-01-05T15:38:29.028Z,2.70
2023-01-05T15:40:32.722Z,2.72
2023-01-05T15:42:46.702Z,3.08
2023-01-05T15:44:51.976Z,2.53
2023-01-05T15:46:56.481Z,2.80
2023-01-05T15:48:59.697Z,2.83
2023-01-05T15:51:02.720Z,2.53
2023-01-05T15:53:04.890Z,2.25
2023-01-05T15:55:19.319Z,2.75
2023-01-05T15:57:22.473Z,3.78
2023-01-05T15:59:31.791Z,4.15
2023-01-05T16:01:38.776Z,5.75
2023-01-05T16:03:42.998Z,3.05
2023-01-05T16:05:45.052Z,2.95
2023-01-05T16:07:55.173Z,3.17
2023-01-05T16:09:57.264Z,3.55
2023-01-05T16:12:06.637Z,3.33
2023-01-05T16:14:29.987Z,4.28
2023-01-05T16:16:52.402Z,3.15
2023-01-05T16:19:02.478Z,2.17
2023-01-05T16:21:31.458Z,3.00
2023-01-05T16:23:44.851Z,3.42
2023-01-05T16:25:53.565Z,2.60
2023-01-05T16:28:03.604Z,2.20
2023-01-05T16:30:28.496Z,1.85
2023-01-05T16:32:41.959Z,1.58
2023-01-05T16:34:43.848Z,1.80
2023-01-05T16:37:08.858Z,1.90
2023-01-05T16:39:22.048Z,2.40
2023-01-05T16:41:26.745Z,1.73
2023-01-05T16:43:35.901Z,1.67
2023-01-05T16:45:37.873Z,1.50
2023-01-05T16:47:41.805Z,1.80
2023-01-05T16:50:01.562Z,1.90
2023-01-05T16:52:07.946Z,2.00
2023-01-05T16:54:23.613Z,2.10
2023-01-05T16:56:35.460Z,2.00
2023-01-05T16:58:38.565Z,1.60
2023-01-05T17:00:40.580Z,1.20
2023-01-05T17:02:49.251Z,1.52
2023-01-05T17:04:52.307Z,1.30
2023-01-05T17:06:58.076Z,1.30
2023-01-05T17:09:01.905Z,1.30
2023-01-05T17:11:07.903Z,1.40
2023-01-05T17:13:20.798Z,1.23
2023-01-05T17:15:28.294Z,1.58
2023-01-05T17:17:30.255Z,1.58
2023-01-05T17:19:35.384Z,1.52
2023-01-05T17:23:47.242Z,1.33
2023-01-05T17:28:03.339Z,1.50
2023-01-05T17:30:18.352Z,1.48
2023-01-05T17:32:20.338Z,1.38
2023-01-05T17:34:23.402Z,1.40
2023-01-05T17:36:34.212Z,1.63
2023-01-05T17:38:36.119Z,1.92
2023-01-05T17:40:38.753Z,1.30
2023-01-05T17:42:43.643Z,1.83
2023-01-05T17:44:45.762Z,1.63
2023-01-05T17:46:49.576Z,1.63
2023-01-05T17:48:51.998Z,1.40
2023-01-05T17:50:54.435Z,1.30
2023-01-05T17:52:58.220Z,2.00
2023-01-05T17:55:00.158Z,2.10
2023-01-05T17:57:02.082Z,2.60
2023-01-05T17:59:05.186Z,2.20
2023-01-05T18:01:07.537Z,1.55
2023-01-05T18:03:10.593Z,1.77
2023-01-05T18:05:14.247Z,2.20
2023-01-05T18:07:16.235Z,2.15
2023-01-05T18:09:18.170Z,2.50
2023-01-05T18:11:20.302Z,2.17
2023-01-05T18:13:23.008Z,2.40
2023-01-05T18:17:29.994Z,2.08
2023-01-05T18:19:33.611Z,2.10
2023-01-05T18:21:35.978Z,2.22
2023-01-05T18:23:38.338Z,2.63
2023-01-05T18:25:40.605Z,2.58
2023-01-05T18:27:45.993Z,1.90
2023-01-05T18:29:52.239Z,2.50
2023-01-05T18:31:55.477Z,2.50
2023-01-05T18:33:57.537Z,2.30
2023-01-05T18:38:12.998Z,2.90
2023-01-05T18:40:16.003Z,2.63
2023-01-05T18:42:18.455Z,2.05
2023-01-05T18:44:20.574Z,2.00
2023-01-05T18:46:23.895Z,2.28
2023-01-05T18:48:26.176Z,2.58
2023-01-05T18:50:29.619Z,2.30
2023-01-05T18:52:32.014Z,2.13
2023-01-05T18:54:35.162Z,1.83
2023-01-05T18:56:37.593Z,2.00
2023-01-05T18:58:39.923Z,2.30
2023-01-05T19:00:43.942Z,2.20
2023-01-05T19:02:47.339Z,2.53
2023-01-05T19:04:49.869Z,2.15
2023-01-05T19:06:52.982Z,1.60
2023-01-05T19:08:55.134Z,1.20
2023-01-05T19:10:57.273Z,1.60
2023-01-05T19:12:59.643Z,0.98
2023-01-05T19:15:01.823Z,1.85
2023-01-05T19:17:04.890Z,1.40
2023-01-05T19:19:16.893Z,1.10
2023-01-05T19:21:23.913Z,1.73
2023-01-05T19:23:26.939Z,1.63
2023-01-05T19:25:30.302Z,2.13
2023-01-05T19:27:32.496Z,2.50
2023-01-05T19:29:34.735Z,1.80
2023-01-05T19:31:38.010Z,2.17
2023-01-05T19:33:41.520Z,2.58
2023-01-05T19:35:46.400Z,1.50
2023-01-05T19:37:48.651Z,1.50
2023-01-05T19:39:50.854Z,2.13
2023-01-05T19:41:53.488Z,1.60
2023-01-05T19:43:57.019Z,0.95
2023-01-05T19:46:01.403Z,2.58
2023-01-05T19:48:03.697Z,1.48
2023-01-05T19:50:08.012Z,2.10
2023-01-05T19:52:10.180Z,2.55
2023-01-05T19:54:14.210Z,2.20
2023-01-05T19:56:16.451Z,2.28
2023-01-05T19:58:18.725Z,2.28
2023-01-05T20:00:21.182Z,1.80
2023-01-05T20:02:23.267Z,2.17
2023-01-05T20:04:25.476Z,2.15
2023-01-05T20:06:30.004Z,1.45
2023-01-05T20:08:33.173Z,1.70
2023-01-05T20:10:38.780Z,1.50
2023-01-05T20:12:41.062Z,2.10
2023-01-05T20:14:44.053Z,1.90
2023-01-05T20:16:58.104Z,1.75
2023-01-05T20:19:00.883Z,1.80
2023-01-05T20:21:05.205Z,2.22
2023-01-05T20:23:07.326Z,1.13
2023-01-05T20:25:10.422Z,1.80
2023-01-05T20:27:16.115Z,2.25
2023-01-05T20:29:21.138Z,1.50
2023-01-05T20:31:27.524Z,2.45
2023-01-05T20:33:30.047Z,2.17
2023-01-05T20:35:32.649Z,2.47
2023-01-05T20:37:34.716Z,2.95
2023-01-05T20:39:38.627Z,1.80
2023-01-05T20:41:43.459Z,1.38
2023-01-05T20:43:48.092Z,1.60
2023-01-05T20:45:50.882Z,1.73
2023-01-05T20:47:52.967Z,1.58
2023-01-05T20:49:56.760Z,2.00
2023-01-05T20:52:03.159Z,1.65
2023-01-05T20:54:09.243Z,1.50
2023-01-05T20:56:16.383Z,1.30
2023-01-05T20:58:21.445Z,1.40
2023-01-05T21:01:10.681Z,1.40
2023-01-05T21:03:20.477Z,1.40
2023-01-05T21:05:24.509Z,1.70
2023-01-05T21:07:41.240Z,1.70
2023-01-05T21:09:56.368Z,1.42
2023-01-05T21:11:59.955Z,1.75
2023-01-05T21:14:07.682Z,1.70
2023-01-05T21:16:45.663Z,1.75
2023-01-05T21:18:52.955Z,2.28
2023-01-05T21:21:32.444Z,1.65
2023-01-05T21:23:51.276Z,1.40
2023-01-05T21:26:07.454Z,1.02
2023-01-05T21:28:11.761Z,1.08
2023-01-05T21:31:04.322Z,1.33
2023-01-05T21:33:15.335Z,1.00
2023-01-05T21:35:41.293Z,1.27
2023-01-05T21:37:45.461Z,1.00
2023-01-05T21:39:57.954Z,1.30
2023-01-05T21:42:22.844Z,1.40
2023-01-05T21:44:24.824Z,1.13
2023-01-05T21:46:43.702Z,1.75
2023-01-05T21:48:46.702Z,1.40
2023-01-05T21:51:18.623Z,1.30
2023-01-05T21:56:12.598Z,0.90
2023-01-05T21:58:20.778Z,0.57
2023-01-05T22:00:29.159Z,1.00
2023-01-05T22:02:41.057Z,1.40
2023-01-05T22:04:44.665Z,1.10
2023-01-05T22:06:57.623Z,1.00
2023-01-05T22:09:01.827Z,0.85
2023-01-05T22:11:05.399Z,0.52
2023-01-05T22:13:11.780Z,0.80
2023-01-05T22:15:14.731Z,0.55
2023-01-05T22:17:16.757Z,0.60
2023-01-05T22:19:18.893Z,1.23
2023-01-05T22:21:26.152Z,1.25
2023-01-05T22:23:32.335Z,1.35
2023-01-05T22:25:46.426Z,1.60
2023-01-05T22:27:51.431Z,1.10
2023-01-05T22:29:55.455Z,1.30
2023-01-05T22:32:07.249Z,1.42
2023-01-05T22:34:23.887Z,1.25
2023-01-05T22:36:33.921Z,1.35
2023-01-05T22:38:42.224Z,1.70
2023-01-05T22:40:44.253Z,1.40
2023-01-05T22:42:58.239Z,1.60
2023-01-05T22:45:07.037Z,1.75
2023-01-05T22:47:11.145Z,1.42
2023-01-05T22:49:17.217Z,1.50
2023-01-05T22:51:37.252Z,1.75
2023-01-05T22:53:56.940Z,1.38
2023-01-05T22:55:59.384Z,1.50
2023-01-05T22:58:06.890Z,1.27
2023-01-05T23:00:20.081Z,1.63
2023-01-05T23:02:23.108Z,1.52
2023-01-05T23:04:35.586Z,1.40
2023-01-05T23:06:37.927Z,1.40
2023-01-05T23:08:41.453Z,1.70
2023-01-05T23:11:01.911Z,1.92
2023-01-05T23:13:11.051Z,1.38
2023-01-05T23:15:15.003Z,1.52
2023-01-05T23:17:17.005Z,1.40
2023-01-05T23:19:19.322Z,1.30
2023-01-05T23:21:37.225Z,0.80
2023-01-05T23:23:55.839Z,1.08
2023-01-05T23:25:58.291Z,1.00
2023-01-05T23:28:00.272Z,1.38
2023-01-05T23:30:06.477Z,1.10
2023-01-05T23:32:08.609Z,1.20
2023-01-05T23:34:11.693Z,1.17
2023-01-05T23:36:16.025Z,1.30
2023-01-05T23:38:19.628Z,1.42
2023-01-05T23:40:21.642Z,1.40
2023-01-05T23:42:43.056Z,1.38
2023-01-05T23:44:54.991Z,1.52
2023-01-05T23:46:58.940Z,1.23
2023-01-05T23:49:01.841Z,1.38
2023-01-05T23:51:13.683Z,1.45
2023-01-05T23:53:16.618Z,1.40
2023-01-05T23:55:20.667Z,1.40
2023-01-05T23:57:22.699Z,1.60
2023-01-05T23:59:38.023Z,1.30
